sensor_id;sensor_type;location;lat;lon;timestamp;P1;durP1;ratioP1;P2;durP2;ratioP2
36449;SDS011;22475;51.390;7.180;2023-06-01T00:00:13;3.58;;;1.25;;
36449;SDS011;22475;51.390;7.180;2023-06-01T00:02:40;3.17;;;1.65;;
36449;SDS011;22475;51.390;7.180;2023-06-01T00:05:07;1.90;;;1.45;;
36449;SDS011;22475;51.390;7.180;2023-06-01T00:07:35;2.47;;;2.00;;
36449;SDS011;22475;51.390;7.180;2023-06-01T00:10:02;1.30;;;1.05;;
36449;SDS011;22475;51.390;7.180;2023-06-01T00:12:29;3.67;;;1.40;;
36449;SDS011;22475;51.390;7.180;2023-06-01T00:14:56;2.92;;;1.70;;
36449;SDS011;22475;51.390;7.180;2023-06-01T00:17:23;3.78;;;1.70;;
36449;SDS011;22475;51.390;7.180;2023-06-01T00:19:49;1.73;;;1.40;;
36449;SDS011;22475;51.390;7.180;2023-06-01T00:22:18;4.95;;;2.03;;
36449;SDS011;22475;51.390;7.180;2023-06-01T00:24:46;9.65;;;1.77;;
36449;SDS011;22475;51.390;7.180;2023-06-01T00:27:13;2.78;;;1.58;;
36449;SDS011;22475;51.390;7.180;2023-06-01T00:29:40;3.50;;;1.67;;
36449;SDS011;22475;51.390;7.180;2023-06-01T00:32:06;2.15;;;1.77;;
36449;SDS011;22475;51.390;7.180;2023-06-01T00:34:33;6.57;;;1.23;;
36449;SDS011;22475;51.390;7.180;2023-06-01T00:37:00;1.80;;;1.52;;
36449;SDS011;22475;51.390;7.180;2023-06-01T00:39:26;1.90;;;1.17;;
36449;SDS011;22475;51.390;7.180;2023-06-01T00:41:55;4.15;;;1.67;;
36449;SDS011;22475;51.390;7.180;2023-06-01T00:44:21;4.13;;;1.40;;
36449;SDS011;22475;51.390;7.180;2023-06-01T00:46:48;3.88;;;1.48;;
36449;SDS011;22475;51.390;7.180;2023-06-01T00:49:16;9.35;;;1.67;;
36449;SDS011;22475;51.390;7.180;2023-06-01T00:51:43;5.60;;;1.70;;
36449;SDS011;22475;51.390;7.180;2023-06-01T00:54:11;2.97;;;1.65;;
36449;SDS011;22475;51.390;7.180;2023-06-01T00:56:38;6.60;;;1.88;;
36449;SDS011;22475;51.390;7.180;2023-06-01T00:59:06;4.35;;;1.80;;
36449;SDS011;22475;51.390;7.180;2023-06-01T01:01:33;3.10;;;1.73;;
36449;SDS011;22475;51.390;7.180;2023-06-01T01:04:01;3.05;;;1.63;;
36449;SDS011;22475;51.390;7.180;2023-06-01T01:06:31;2.75;;;1.45;;
36449;SDS011;22475;51.390;7.180;2023-06-01T01:09:10;2.42;;;1.50;;
36449;SDS011;22475;51.390;7.180;2023-06-01T01:11:43;1.85;;;1.33;;
36449;SDS011;22475;51.390;7.180;2023-06-01T01:14:19;7.43;;;2.58;;
36449;SDS011;22475;51.390;7.180;2023-06-01T01:16:49;1.48;;;1.38;;
36449;SDS011;22475;51.390;7.180;2023-06-01T01:19:28;1.33;;;1.15;;
36449;SDS011;22475;51.390;7.180;2023-06-01T01:22:19;1.58;;;1.38;;
36449;SDS011;22475;51.390;7.180;2023-06-01T01:24:57;1.73;;;1.20;;
36449;SDS011;22475;51.390;7.180;2023-06-01T01:27:49;2.45;;;2.15;;
36449;SDS011;22475;51.390;7.180;2023-06-01T01:30:34;6.15;;;1.65;;
36449;SDS011;22475;51.390;7.180;2023-06-01T01:33:03;5.88;;;1.60;;
36449;SDS011;22475;51.390;7.180;2023-06-01T01:35:31;3.13;;;2.05;;
36449;SDS011;22475;51.390;7.180;2023-06-01T01:37:58;2.70;;;2.08;;
36449;SDS011;22475;51.390;7.180;2023-06-01T01:40:25;6.47;;;2.53;;
36449;SDS011;22475;51.390;7.180;2023-06-01T01:42:52;13.00;;;2.83;;
36449;SDS011;22475;51.390;7.180;2023-06-01T01:45:20;3.17;;;2.83;;
36449;SDS011;22475;51.390;7.180;2023-06-01T01:47:51;3.63;;;1.52;;
36449;SDS011;22475;51.390;7.180;2023-06-01T01:50:26;3.78;;;1.95;;
36449;SDS011;22475;51.390;7.180;2023-06-01T01:52:57;1.52;;;1.42;;
36449;SDS011;22475;51.390;7.180;2023-06-01T01:55:24;3.60;;;1.52;;
36449;SDS011;22475;51.390;7.180;2023-06-01T01:57:53;1.98;;;1.65;;
36449;SDS011;22475;51.390;7.180;2023-06-01T02:00:22;1.88;;;1.65;;
36449;SDS011;22475;51.390;7.180;2023-06-01T02:02:50;5.70;;;2.33;;
36449;SDS011;22475;51.390;7.180;2023-06-01T02:05:17;1.60;;;1.50;;
36449;SDS011;22475;51.390;7.180;2023-06-01T02:07:44;2.25;;;2.05;;
36449;SDS011;22475;51.390;7.180;2023-06-01T02:10:11;2.45;;;2.20;;
36449;SDS011;22475;51.390;7.180;2023-06-01T02:12:37;4.00;;;1.77;;
36449;SDS011;22475;51.390;7.180;2023-06-01T02:15:05;7.53;;;2.90;;
36449;SDS011;22475;51.390;7.180;2023-06-01T02:17:32;2.65;;;2.13;;
36449;SDS011;22475;51.390;7.180;2023-06-01T02:20:01;1.63;;;1.52;;
36449;SDS011;22475;51.390;7.180;2023-06-01T02:22:28;2.33;;;2.10;;
36449;SDS011;22475;51.390;7.180;2023-06-01T02:24:55;1.85;;;1.52;;
36449;SDS011;22475;51.390;7.180;2023-06-01T02:27:22;3.30;;;2.60;;
36449;SDS011;22475;51.390;7.180;2023-06-01T02:29:48;9.23;;;4.30;;
36449;SDS011;22475;51.390;7.180;2023-06-01T02:32:15;4.70;;;2.83;;
36449;SDS011;22475;51.390;7.180;2023-06-01T02:34:42;7.70;;;3.65;;
36449;SDS011;22475;51.390;7.180;2023-06-01T02:37:10;4.93;;;3.47;;
36449;SDS011;22475;51.390;7.180;2023-06-01T02:39:37;5.68;;;3.42;;
36449;SDS011;22475;51.390;7.180;2023-06-01T02:42:04;7.15;;;4.05;;
36449;SDS011;22475;51.390;7.180;2023-06-01T02:44:31;8.23;;;5.10;;
36449;SDS011;22475;51.390;7.180;2023-06-01T02:46:58;3.67;;;3.38;;
36449;SDS011;22475;51.390;7.180;2023-06-01T02:49:24;6.45;;;4.45;;
36449;SDS011;22475;51.390;7.180;2023-06-01T02:51:51;6.35;;;2.80;;
36449;SDS011;22475;51.390;7.180;2023-06-01T02:54:19;3.95;;;2.35;;
36449;SDS011;22475;51.390;7.180;2023-06-01T02:56:46;8.25;;;5.13;;
36449;SDS011;22475;51.390;7.180;2023-06-01T02:59:13;7.85;;;3.75;;
36449;SDS011;22475;51.390;7.180;2023-06-01T03:01:39;6.57;;;4.82;;
36449;SDS011;22475;51.390;7.180;2023-06-01T03:04:06;8.95;;;5.55;;
36449;SDS011;22475;51.390;7.180;2023-06-01T03:06:33;9.55;;;4.82;;
36449;SDS011;22475;51.390;7.180;2023-06-01T03:09:01;9.10;;;3.75;;
36449;SDS011;22475;51.390;7.180;2023-06-01T03:11:29;3.67;;;3.05;;
36449;SDS011;22475;51.390;7.180;2023-06-01T03:13:56;10.10;;;4.07;;
36449;SDS011;22475;51.390;7.180;2023-06-01T03:16:23;12.60;;;6.60;;
36449;SDS011;22475;51.390;7.180;2023-06-01T03:18:50;10.50;;;7.25;;
36449;SDS011;22475;51.390;7.180;2023-06-01T03:21:18;7.72;;;4.93;;
36449;SDS011;22475;51.390;7.180;2023-06-01T03:23:45;9.57;;;4.47;;
36449;SDS011;22475;51.390;7.180;2023-06-01T03:26:11;12.10;;;7.90;;
36449;SDS011;22475;51.390;7.180;2023-06-01T03:28:40;15.23;;;7.53;;
36449;SDS011;22475;51.390;7.180;2023-06-01T03:31:06;7.78;;;5.20;;
36449;SDS011;22475;51.390;7.180;2023-06-01T03:33:36;17.48;;;9.45;;
36449;SDS011;22475;51.390;7.180;2023-06-01T03:36:02;7.60;;;5.60;;
36449;SDS011;22475;51.390;7.180;2023-06-01T03:38:29;9.02;;;6.32;;
36449;SDS011;22475;51.390;7.180;2023-06-01T03:40:56;14.23;;;7.65;;
36449;SDS011;22475;51.390;7.180;2023-06-01T03:43:23;12.65;;;7.68;;
36449;SDS011;22475;51.390;7.180;2023-06-01T03:45:51;15.85;;;8.77;;
36449;SDS011;22475;51.390;7.180;2023-06-01T03:48:18;8.60;;;5.25;;
36449;SDS011;22475;51.390;7.180;2023-06-01T03:50:45;15.57;;;8.85;;
36449;SDS011;22475;51.390;7.180;2023-06-01T03:53:12;12.23;;;6.47;;
36449;SDS011;22475;51.390;7.180;2023-06-01T03:55:39;6.72;;;4.22;;
36449;SDS011;22475;51.390;7.180;2023-06-01T03:58:06;11.25;;;7.40;;
36449;SDS011;22475;51.390;7.180;2023-06-01T04:00:32;9.88;;;7.40;;
36449;SDS011;22475;51.390;7.180;2023-06-01T04:03:02;13.13;;;8.35;;
36449;SDS011;22475;51.390;7.180;2023-06-01T04:05:32;16.67;;;8.68;;
36449;SDS011;22475;51.390;7.180;2023-06-01T04:08:01;15.30;;;9.57;;
36449;SDS011;22475;51.390;7.180;2023-06-01T04:10:28;13.85;;;6.95;;
36449;SDS011;22475;51.390;7.180;2023-06-01T04:12:54;12.75;;;7.43;;
36449;SDS011;22475;51.390;7.180;2023-06-01T04:15:21;16.65;;;7.63;;
36449;SDS011;22475;51.390;7.180;2023-06-01T04:17:49;12.52;;;7.05;;
36449;SDS011;22475;51.390;7.180;2023-06-01T04:20:17;15.80;;;9.52;;
36449;SDS011;22475;51.390;7.180;2023-06-01T04:22:45;18.73;;;8.98;;
36449;SDS011;22475;51.390;7.180;2023-06-01T04:25:13;16.95;;;8.35;;
36449;SDS011;22475;51.390;7.180;2023-06-01T04:27:42;11.00;;;8.07;;
36449;SDS011;22475;51.390;7.180;2023-06-01T04:30:11;18.65;;;9.13;;
36449;SDS011;22475;51.390;7.180;2023-06-01T04:32:38;19.40;;;10.40;;
36449;SDS011;22475;51.390;7.180;2023-06-01T04:35:06;14.48;;;8.27;;
36449;SDS011;22475;51.390;7.180;2023-06-01T04:37:35;20.42;;;10.85;;
36449;SDS011;22475;51.390;7.180;2023-06-01T04:40:04;23.95;;;10.82;;
36449;SDS011;22475;51.390;7.180;2023-06-01T04:42:33;16.55;;;8.55;;
36449;SDS011;22475;51.390;7.180;2023-06-01T04:45:00;27.00;;;10.15;;
36449;SDS011;22475;51.390;7.180;2023-06-01T04:47:29;10.82;;;7.63;;
36449;SDS011;22475;51.390;7.180;2023-06-01T04:49:56;12.23;;;8.13;;
36449;SDS011;22475;51.390;7.180;2023-06-01T04:52:23;20.27;;;10.98;;
36449;SDS011;22475;51.390;7.180;2023-06-01T04:54:51;15.88;;;9.38;;
36449;SDS011;22475;51.390;7.180;2023-06-01T04:57:17;28.30;;;11.50;;
36449;SDS011;22475;51.390;7.180;2023-06-01T04:59:44;20.67;;;10.63;;
36449;SDS011;22475;51.390;7.180;2023-06-01T05:02:11;20.20;;;12.00;;
36449;SDS011;22475;51.390;7.180;2023-06-01T05:04:38;17.40;;;11.15;;
36449;SDS011;22475;51.390;7.180;2023-06-01T05:07:05;22.85;;;12.85;;
36449;SDS011;22475;51.390;7.180;2023-06-01T05:09:32;10.93;;;6.40;;
36449;SDS011;22475;51.390;7.180;2023-06-01T05:12:00;18.20;;;9.80;;
36449;SDS011;22475;51.390;7.180;2023-06-01T05:14:27;24.48;;;13.05;;
36449;SDS011;22475;51.390;7.180;2023-06-01T05:16:54;26.55;;;13.73;;
36449;SDS011;22475;51.390;7.180;2023-06-01T05:19:21;22.95;;;12.80;;
36449;SDS011;22475;51.390;7.180;2023-06-01T05:21:48;15.40;;;8.40;;
36449;SDS011;22475;51.390;7.180;2023-06-01T05:24:14;22.88;;;11.18;;
36449;SDS011;22475;51.390;7.180;2023-06-01T05:26:41;17.70;;;10.35;;
36449;SDS011;22475;51.390;7.180;2023-06-01T05:29:09;20.30;;;11.25;;
36449;SDS011;22475;51.390;7.180;2023-06-01T05:31:36;24.90;;;13.93;;
36449;SDS011;22475;51.390;7.180;2023-06-01T05:34:03;28.05;;;13.02;;
36449;SDS011;22475;51.390;7.180;2023-06-01T05:36:30;21.42;;;9.80;;
36449;SDS011;22475;51.390;7.180;2023-06-01T05:38:58;19.25;;;10.88;;
36449;SDS011;22475;51.390;7.180;2023-06-01T05:41:24;24.45;;;13.10;;
36449;SDS011;22475;51.390;7.180;2023-06-01T05:43:52;26.70;;;13.57;;
36449;SDS011;22475;51.390;7.180;2023-06-01T05:46:20;24.02;;;13.18;;
36449;SDS011;22475;51.390;7.180;2023-06-01T05:48:49;32.97;;;14.98;;
36449;SDS011;22475;51.390;7.180;2023-06-01T05:51:16;23.88;;;13.30;;
36449;SDS011;22475;51.390;7.180;2023-06-01T05:53:43;22.67;;;12.43;;
36449;SDS011;22475;51.390;7.180;2023-06-01T05:56:09;30.02;;;13.90;;
36449;SDS011;22475;51.390;7.180;2023-06-01T05:58:36;23.48;;;11.20;;
36449;SDS011;22475;51.390;7.180;2023-06-01T06:01:03;17.85;;;9.75;;
36449;SDS011;22475;51.390;7.180;2023-06-01T06:03:31;25.60;;;12.55;;
36449;SDS011;22475;51.390;7.180;2023-06-01T06:05:58;22.45;;;12.32;;
36449;SDS011;22475;51.390;7.180;2023-06-01T06:08:25;21.20;;;13.23;;
36449;SDS011;22475;51.390;7.180;2023-06-01T06:10:52;21.33;;;12.07;;
36449;SDS011;22475;51.390;7.180;2023-06-01T06:13:19;13.55;;;10.10;;
36449;SDS011;22475;51.390;7.180;2023-06-01T06:15:46;24.00;;;12.43;;
36449;SDS011;22475;51.390;7.180;2023-06-01T06:18:13;14.45;;;10.50;;
36449;SDS011;22475;51.390;7.180;2023-06-01T06:20:41;24.17;;;13.25;;
36449;SDS011;22475;51.390;7.180;2023-06-01T06:23:08;14.95;;;9.05;;
36449;SDS011;22475;51.390;7.180;2023-06-01T06:25:35;19.27;;;11.00;;
36449;SDS011;22475;51.390;7.180;2023-06-01T06:28:02;15.35;;;9.48;;
36449;SDS011;22475;51.390;7.180;2023-06-01T06:30:29;13.98;;;9.32;;
36449;SDS011;22475;51.390;7.180;2023-06-01T06:32:56;15.20;;;9.63;;
36449;SDS011;22475;51.390;7.180;2023-06-01T06:35:23;21.45;;;11.38;;
36449;SDS011;22475;51.390;7.180;2023-06-01T06:37:51;17.02;;;9.30;;
36449;SDS011;22475;51.390;7.180;2023-06-01T06:40:18;17.35;;;11.20;;
36449;SDS011;22475;51.390;7.180;2023-06-01T06:42:45;24.95;;;13.65;;
36449;SDS011;22475;51.390;7.180;2023-06-01T06:45:12;23.77;;;12.18;;
36449;SDS011;22475;51.390;7.180;2023-06-01T06:47:39;17.85;;;9.32;;
36449;SDS011;22475;51.390;7.180;2023-06-01T06:50:07;18.25;;;10.50;;
36449;SDS011;22475;51.390;7.180;2023-06-01T06:52:34;16.20;;;9.55;;
36449;SDS011;22475;51.390;7.180;2023-06-01T06:55:03;15.30;;;8.60;;
36449;SDS011;22475;51.390;7.180;2023-06-01T06:57:30;16.90;;;11.02;;
36449;SDS011;22475;51.390;7.180;2023-06-01T06:59:59;14.18;;;9.48;;
36449;SDS011;22475;51.390;7.180;2023-06-01T07:02:25;15.57;;;10.68;;
36449;SDS011;22475;51.390;7.180;2023-06-01T07:04:52;20.60;;;11.57;;
36449;SDS011;22475;51.390;7.180;2023-06-01T07:07:19;21.00;;;9.40;;
36449;SDS011;22475;51.390;7.180;2023-06-01T07:09:46;22.88;;;12.18;;
36449;SDS011;22475;51.390;7.180;2023-06-01T07:12:14;19.77;;;10.48;;
36449;SDS011;22475;51.390;7.180;2023-06-01T07:14:41;19.95;;;10.40;;
36449;SDS011;22475;51.390;7.180;2023-06-01T07:17:07;12.90;;;8.25;;
36449;SDS011;22475;51.390;7.180;2023-06-01T07:19:35;15.65;;;9.07;;
36449;SDS011;22475;51.390;7.180;2023-06-01T07:22:02;16.42;;;8.77;;
36449;SDS011;22475;51.390;7.180;2023-06-01T07:24:29;14.07;;;9.25;;
36449;SDS011;22475;51.390;7.180;2023-06-01T07:26:56;13.35;;;8.50;;
36449;SDS011;22475;51.390;7.180;2023-06-01T07:29:24;17.67;;;8.40;;
36449;SDS011;22475;51.390;7.180;2023-06-01T07:31:51;11.43;;;8.05;;
36449;SDS011;22475;51.390;7.180;2023-06-01T07:34:18;14.88;;;7.80;;
36449;SDS011;22475;51.390;7.180;2023-06-01T07:36:45;11.75;;;7.70;;
36449;SDS011;22475;51.390;7.180;2023-06-01T07:39:14;10.85;;;7.63;;
36449;SDS011;22475;51.390;7.180;2023-06-01T07:41:41;12.55;;;7.60;;
36449;SDS011;22475;51.390;7.180;2023-06-01T07:44:10;13.48;;;7.07;;
36449;SDS011;22475;51.390;7.180;2023-06-01T07:46:38;11.55;;;8.45;;
36449;SDS011;22475;51.390;7.180;2023-06-01T07:49:05;13.10;;;7.80;;
36449;SDS011;22475;51.390;7.180;2023-06-01T07:51:32;12.68;;;8.10;;
36449;SDS011;22475;51.390;7.180;2023-06-01T07:53:59;12.50;;;7.45;;
36449;SDS011;22475;51.390;7.180;2023-06-01T07:56:26;10.98;;;6.55;;
36449;SDS011;22475;51.390;7.180;2023-06-01T07:58:53;9.75;;;7.13;;
36449;SDS011;22475;51.390;7.180;2023-06-01T08:01:20;13.95;;;7.05;;
36449;SDS011;22475;51.390;7.180;2023-06-01T08:03:48;8.25;;;6.38;;
36449;SDS011;22475;51.390;7.180;2023-06-01T08:06:16;16.42;;;7.93;;
36449;SDS011;22475;51.390;7.180;2023-06-01T08:08:43;7.10;;;6.40;;
36449;SDS011;22475;51.390;7.180;2023-06-01T08:11:10;14.98;;;8.50;;
36449;SDS011;22475;51.390;7.180;2023-06-01T08:13:37;7.25;;;6.25;;
36449;SDS011;22475;51.390;7.180;2023-06-01T08:16:06;8.45;;;6.40;;
36449;SDS011;22475;51.390;7.180;2023-06-01T08:18:33;14.27;;;6.57;;
36449;SDS011;22475;51.390;7.180;2023-06-01T08:21:01;19.27;;;7.88;;
36449;SDS011;22475;51.390;7.180;2023-06-01T08:23:29;7.70;;;5.35;;
36449;SDS011;22475;51.390;7.180;2023-06-01T08:25:55;13.63;;;7.82;;
36449;SDS011;22475;51.390;7.180;2023-06-01T08:28:22;12.63;;;7.82;;
36449;SDS011;22475;51.390;7.180;2023-06-01T08:30:49;12.75;;;6.57;;
36449;SDS011;22475;51.390;7.180;2023-06-01T08:33:16;7.15;;;5.65;;
36449;SDS011;22475;51.390;7.180;2023-06-01T08:35:43;18.83;;;6.55;;
36449;SDS011;22475;51.390;7.180;2023-06-01T08:38:11;6.25;;;5.65;;
36449;SDS011;22475;51.390;7.180;2023-06-01T08:40:38;10.85;;;7.00;;
36449;SDS011;22475;51.390;7.180;2023-06-01T08:43:07;8.35;;;5.22;;
36449;SDS011;22475;51.390;7.180;2023-06-01T08:45:39;9.43;;;5.82;;
36449;SDS011;22475;51.390;7.180;2023-06-01T08:48:07;11.43;;;6.00;;
36449;SDS011;22475;51.390;7.180;2023-06-01T08:50:35;6.90;;;5.10;;
36449;SDS011;22475;51.390;7.180;2023-06-01T08:53:02;11.50;;;6.20;;
36449;SDS011;22475;51.390;7.180;2023-06-01T08:55:31;10.65;;;7.55;;
36449;SDS011;22475;51.390;7.180;2023-06-01T08:57:58;11.55;;;6.68;;
36449;SDS011;22475;51.390;7.180;2023-06-01T09:00:25;11.63;;;6.63;;
36449;SDS011;22475;51.390;7.180;2023-06-01T09:02:53;9.05;;;5.97;;
36449;SDS011;22475;51.390;7.180;2023-06-01T09:05:20;11.15;;;6.65;;
36449;SDS011;22475;51.390;7.180;2023-06-01T09:07:47;12.50;;;6.15;;
36449;SDS011;22475;51.390;7.180;2023-06-01T09:10:14;8.63;;;5.35;;
36449;SDS011;22475;51.390;7.180;2023-06-01T09:12:50;10.48;;;5.40;;
36449;SDS011;22475;51.390;7.180;2023-06-01T09:15:18;10.82;;;6.80;;
36449;SDS011;22475;51.390;7.180;2023-06-01T09:17:46;7.35;;;5.95;;
36449;SDS011;22475;51.390;7.180;2023-06-01T09:20:16;6.50;;;4.65;;
36449;SDS011;22475;51.390;7.180;2023-06-01T09:22:49;10.27;;;5.68;;
36449;SDS011;22475;51.390;7.180;2023-06-01T09:25:16;13.65;;;7.05;;
36449;SDS011;22475;51.390;7.180;2023-06-01T09:27:50;10.57;;;6.40;;
36449;SDS011;22475;51.390;7.180;2023-06-01T09:30:18;8.00;;;6.28;;
36449;SDS011;22475;51.390;7.180;2023-06-01T09:32:46;8.05;;;5.13;;
36449;SDS011;22475;51.390;7.180;2023-06-01T09:35:15;10.25;;;6.35;;
36449;SDS011;22475;51.390;7.180;2023-06-01T09:37:53;10.18;;;5.50;;
36449;SDS011;22475;51.390;7.180;2023-06-01T09:40:21;13.65;;;5.70;;
36449;SDS011;22475;51.390;7.180;2023-06-01T09:42:49;7.40;;;4.78;;
36449;SDS011;22475;51.390;7.180;2023-06-01T09:45:17;9.02;;;6.10;;
36449;SDS011;22475;51.390;7.180;2023-06-01T09:47:45;10.70;;;7.10;;
36449;SDS011;22475;51.390;7.180;2023-06-01T09:52:58;20.25;;;8.25;;
36449;SDS011;22475;51.390;7.180;2023-06-01T09:55:25;7.75;;;5.20;;
36449;SDS011;22475;51.390;7.180;2023-06-01T09:57:53;11.13;;;6.47;;
36449;SDS011;22475;51.390;7.180;2023-06-01T10:00:45;6.38;;;5.60;;
36449;SDS011;22475;51.390;7.180;2023-06-01T10:03:14;9.20;;;6.25;;
36449;SDS011;22475;51.390;7.180;2023-06-01T10:05:41;13.75;;;6.65;;
36449;SDS011;22475;51.390;7.180;2023-06-01T10:08:10;8.75;;;4.78;;
36449;SDS011;22475;51.390;7.180;2023-06-01T10:10:37;7.85;;;4.20;;
36449;SDS011;22475;51.390;7.180;2023-06-01T10:13:05;8.93;;;5.90;;
36449;SDS011;22475;51.390;7.180;2023-06-01T10:15:33;11.70;;;6.35;;
36449;SDS011;22475;51.390;7.180;2023-06-01T10:18:01;10.73;;;6.25;;
36449;SDS011;22475;51.390;7.180;2023-06-01T10:20:30;10.23;;;4.65;;
36449;SDS011;22475;51.390;7.180;2023-06-01T10:22:58;10.68;;;5.47;;
36449;SDS011;22475;51.390;7.180;2023-06-01T10:25:25;17.05;;;7.25;;
36449;SDS011;22475;51.390;7.180;2023-06-01T10:27:57;10.88;;;5.43;;
36449;SDS011;22475;51.390;7.180;2023-06-01T10:32:55;8.30;;;5.53;;
36449;SDS011;22475;51.390;7.180;2023-06-01T10:38:25;6.78;;;4.65;;
36449;SDS011;22475;51.390;7.180;2023-06-01T10:40:52;9.38;;;5.93;;
36449;SDS011;22475;51.390;7.180;2023-06-01T10:49:08;15.05;;;7.13;;
36449;SDS011;22475;51.390;7.180;2023-06-01T10:51:34;5.95;;;3.85;;
36449;SDS011;22475;51.390;7.180;2023-06-01T11:00:12;11.20;;;5.38;;
36449;SDS011;22475;51.390;7.180;2023-06-01T11:02:44;10.70;;;5.35;;
36449;SDS011;22475;51.390;7.180;2023-06-01T11:11:11;5.63;;;4.57;;
36449;SDS011;22475;51.390;7.180;2023-06-01T11:13:38;14.98;;;5.03;;
36449;SDS011;22475;51.390;7.180;2023-06-01T11:16:26;5.60;;;4.65;;
36449;SDS011;22475;51.390;7.180;2023-06-01T11:18:54;11.05;;;4.88;;
36449;SDS011;22475;51.390;7.180;2023-06-01T11:21:25;5.90;;;4.60;;
36449;SDS011;22475;51.390;7.180;2023-06-01T11:23:54;3.83;;;3.45;;
36449;SDS011;22475;51.390;7.180;2023-06-01T11:26:22;6.53;;;3.80;;
36449;SDS011;22475;51.390;7.180;2023-06-01T11:28:51;5.60;;;4.40;;
36449;SDS011;22475;51.390;7.180;2023-06-01T11:31:19;5.60;;;4.07;;
36449;SDS011;22475;51.390;7.180;2023-06-01T11:33:48;4.63;;;3.97;;
36449;SDS011;22475;51.390;7.180;2023-06-01T11:36:18;6.38;;;4.40;;
36449;SDS011;22475;51.390;7.180;2023-06-01T11:38:50;7.25;;;4.18;;
36449;SDS011;22475;51.390;7.180;2023-06-01T11:41:18;6.10;;;4.20;;
36449;SDS011;22475;51.390;7.180;2023-06-01T11:43:53;4.97;;;3.90;;
36449;SDS011;22475;51.390;7.180;2023-06-01T11:46:21;7.17;;;4.17;;
36449;SDS011;22475;51.390;7.180;2023-06-01T11:48:58;4.82;;;3.60;;
36449;SDS011;22475;51.390;7.180;2023-06-01T11:51:27;6.40;;;4.10;;
36449;SDS011;22475;51.390;7.180;2023-06-01T11:53:56;6.60;;;3.85;;
36449;SDS011;22475;51.390;7.180;2023-06-01T11:56:27;4.50;;;4.10;;
36449;SDS011;22475;51.390;7.180;2023-06-01T11:58:58;3.95;;;3.22;;
36449;SDS011;22475;51.390;7.180;2023-06-01T12:01:26;7.28;;;4.38;;
36449;SDS011;22475;51.390;7.180;2023-06-01T12:03:53;5.90;;;4.88;;
36449;SDS011;22475;51.390;7.180;2023-06-01T12:06:22;4.72;;;4.28;;
36449;SDS011;22475;51.390;7.180;2023-06-01T12:08:51;3.50;;;3.20;;
36449;SDS011;22475;51.390;7.180;2023-06-01T12:11:22;10.70;;;4.90;;
36449;SDS011;22475;51.390;7.180;2023-06-01T12:13:51;5.13;;;3.75;;
36449;SDS011;22475;51.390;7.180;2023-06-01T12:16:18;5.63;;;5.00;;
36449;SDS011;22475;51.390;7.180;2023-06-01T12:18:45;4.93;;;3.92;;
36449;SDS011;22475;51.390;7.180;2023-06-01T12:21:12;5.22;;;4.78;;
36449;SDS011;22475;51.390;7.180;2023-06-01T12:23:41;3.78;;;3.42;;
36449;SDS011;22475;51.390;7.180;2023-06-01T12:26:08;7.32;;;5.70;;
36449;SDS011;22475;51.390;7.180;2023-06-01T12:28:50;6.32;;;4.28;;
36449;SDS011;22475;51.390;7.180;2023-06-01T12:31:18;7.05;;;5.25;;
36449;SDS011;22475;51.390;7.180;2023-06-01T12:33:45;6.55;;;4.82;;
36449;SDS011;22475;51.390;7.180;2023-06-01T12:38:56;4.28;;;3.65;;
36449;SDS011;22475;51.390;7.180;2023-06-01T12:41:25;8.85;;;5.10;;
36449;SDS011;22475;51.390;7.180;2023-06-01T12:43:53;6.15;;;4.00;;
36449;SDS011;22475;51.390;7.180;2023-06-01T12:46:21;5.07;;;4.60;;
36449;SDS011;22475;51.390;7.180;2023-06-01T12:48:49;4.60;;;4.20;;
36449;SDS011;22475;51.390;7.180;2023-06-01T12:51:17;4.53;;;4.13;;
36449;SDS011;22475;51.390;7.180;2023-06-01T12:53:45;7.82;;;4.80;;
36449;SDS011;22475;51.390;7.180;2023-06-01T12:56:11;5.55;;;4.40;;
36449;SDS011;22475;51.390;7.180;2023-06-01T12:58:38;5.20;;;4.72;;
36449;SDS011;22475;51.390;7.180;2023-06-01T13:01:07;6.20;;;5.60;;
36449;SDS011;22475;51.390;7.180;2023-06-01T13:03:34;7.28;;;4.22;;
36449;SDS011;22475;51.390;7.180;2023-06-01T13:06:01;4.95;;;4.43;;
36449;SDS011;22475;51.390;7.180;2023-06-01T13:08:28;7.25;;;4.18;;
36449;SDS011;22475;51.390;7.180;2023-06-01T13:10:55;6.35;;;4.38;;
36449;SDS011;22475;51.390;7.180;2023-06-01T13:13:21;7.45;;;5.20;;
36449;SDS011;22475;51.390;7.180;2023-06-01T13:15:48;4.93;;;4.00;;
36449;SDS011;22475;51.390;7.180;2023-06-01T13:18:16;6.05;;;4.28;;
36449;SDS011;22475;51.390;7.180;2023-06-01T13:20:43;5.25;;;4.72;;
36449;SDS011;22475;51.390;7.180;2023-06-01T13:23:10;6.35;;;4.32;;
36449;SDS011;22475;51.390;7.180;2023-06-01T13:25:37;4.97;;;4.47;;
36449;SDS011;22475;51.390;7.180;2023-06-01T13:28:04;5.53;;;4.60;;
36449;SDS011;22475;51.390;7.180;2023-06-01T13:30:31;6.10;;;4.47;;
36449;SDS011;22475;51.390;7.180;2023-06-01T13:32:59;5.22;;;4.68;;
36449;SDS011;22475;51.390;7.180;2023-06-01T13:35:27;4.50;;;4.10;;
36449;SDS011;22475;51.390;7.180;2023-06-01T13:37:54;6.00;;;5.15;;
36449;SDS011;22475;51.390;7.180;2023-06-01T13:40:21;6.78;;;5.18;;
36449;SDS011;22475;51.390;7.180;2023-06-01T13:42:49;5.93;;;4.35;;
36449;SDS011;22475;51.390;7.180;2023-06-01T13:45:16;5.65;;;5.22;;
36449;SDS011;22475;51.390;7.180;2023-06-01T13:47:43;6.10;;;4.97;;
36449;SDS011;22475;51.390;7.180;2023-06-01T13:50:10;4.38;;;4.05;;
36449;SDS011;22475;51.390;7.180;2023-06-01T13:52:39;11.57;;;4.78;;
36449;SDS011;22475;51.390;7.180;2023-06-01T13:55:07;4.43;;;4.03;;
36449;SDS011;22475;51.390;7.180;2023-06-01T13:57:34;5.20;;;4.70;;
36449;SDS011;22475;51.390;7.180;2023-06-01T14:00:02;5.97;;;4.65;;
36449;SDS011;22475;51.390;7.180;2023-06-01T14:02:30;5.82;;;4.70;;
36449;SDS011;22475;51.390;7.180;2023-06-01T14:04:57;5.32;;;4.22;;
36449;SDS011;22475;51.390;7.180;2023-06-01T14:07:23;6.68;;;5.00;;
36449;SDS011;22475;51.390;7.180;2023-06-01T14:09:52;5.18;;;4.43;;
36449;SDS011;22475;51.390;7.180;2023-06-01T14:12:19;5.07;;;4.68;;
36449;SDS011;22475;51.390;7.180;2023-06-01T14:14:45;5.85;;;4.28;;
36449;SDS011;22475;51.390;7.180;2023-06-01T14:17:12;4.35;;;3.97;;
36449;SDS011;22475;51.390;7.180;2023-06-01T14:19:39;4.82;;;4.32;;
36449;SDS011;22475;51.390;7.180;2023-06-01T14:22:06;5.30;;;4.70;;
36449;SDS011;22475;51.390;7.180;2023-06-01T14:24:32;6.28;;;4.22;;
36449;SDS011;22475;51.390;7.180;2023-06-01T14:27:00;6.22;;;5.10;;
36449;SDS011;22475;51.390;7.180;2023-06-01T14:29:27;6.65;;;4.10;;
36449;SDS011;22475;51.390;7.180;2023-06-01T14:31:54;4.18;;;3.85;;
36449;SDS011;22475;51.390;7.180;2023-06-01T14:34:21;4.00;;;3.70;;
36449;SDS011;22475;51.390;7.180;2023-06-01T14:36:47;4.13;;;3.83;;
36449;SDS011;22475;51.390;7.180;2023-06-01T14:39:14;6.68;;;4.20;;
36449;SDS011;22475;51.390;7.180;2023-06-01T14:41:41;5.43;;;3.92;;
36449;SDS011;22475;51.390;7.180;2023-06-01T14:44:09;5.55;;;4.53;;
36449;SDS011;22475;51.390;7.180;2023-06-01T14:46:36;5.13;;;4.53;;
36449;SDS011;22475;51.390;7.180;2023-06-01T14:49:03;5.75;;;4.13;;
36449;SDS011;22475;51.390;7.180;2023-06-01T14:51:30;5.53;;;3.88;;
36449;SDS011;22475;51.390;7.180;2023-06-01T14:53:57;4.15;;;3.75;;
36449;SDS011;22475;51.390;7.180;2023-06-01T14:56:23;4.22;;;3.83;;
36449;SDS011;22475;51.390;7.180;2023-06-01T14:58:51;4.38;;;4.00;;
36449;SDS011;22475;51.390;7.180;2023-06-01T15:01:19;3.85;;;3.55;;
36449;SDS011;22475;51.390;7.180;2023-06-01T15:03:46;7.05;;;4.47;;
36449;SDS011;22475;51.390;7.180;2023-06-01T15:06:13;4.03;;;3.42;;
36449;SDS011;22475;51.390;7.180;2023-06-01T15:08:40;6.13;;;4.30;;
36449;SDS011;22475;51.390;7.180;2023-06-01T15:11:06;5.43;;;3.78;;
36449;SDS011;22475;51.390;7.180;2023-06-01T15:13:33;6.00;;;3.53;;